Archival Weather

Chicago O'Hare International

Chicago, Illinois (KORD)

Report from: Thursday, June 23, 2022 1:51 AM CDT
Current time: Sunday, June 26, 2022 11:21 AM CDT

Current weather
Weather history
Weather forecast

Temperature21.7°C (71.1°F)
Dew point14.4°C (57.9°F)
Winds 6 kts (3.1 m/s, 6.9 mph) North-Northwest (340°)
Visibility10 mi. (16.1 km)
Clouds Few clouds 25,000 ft. (7,620 m)
Altimeter30.04 in.Hg (1017 mB)
Relative humidity63 %
Density altitude874 ft. (266 m)
Sea-level pressure101.7 kPa (1017 mB, 30.02 in.Hg)
Remarks Automated weather observing station with precipitation discriminator
Flight conditions Visual Meteorological Conditions
Raw dataKORD 230651Z 34006KT 10SM FEW250 22/14 A3004 RMK AO2 SLP167 T02170144
An error has occurred. This application may no longer respond until reloaded. Reload 🗙